Eagle Pass, TX (78852)

3:12 AM CDT on March 23, 2017 (GMT -0500)
Gilncyndees | | Change Station

Elev -10000 ft 28.72 °N, 100.48 °W | Updated 3 seconds ago

Mostly Cloudy
Mostly Cloudy
70.0 °F
Feels Like 70.0 °F
N
1.8
Wind Variable Wind from East
Gusts 4.9 mph

Today
High -- | Low -- °F
--% Chance of Precip.
Yesterday
High -- | Low -- °F
Precip. -- in
Pressure 30.01 in
Visibility 10.0 miles
Clouds Mostly Cloudy 3900 ft
Mostly Cloudy 4600 ft
Dew Point 62 °F
Humidity 75%
Rainfall 0.00 in
Snow Depth Not available.
7:41 AM 7:55 PM
Waning Crescent, 25% visible
METAR KFTN 230755Z AUTO 13010KT 10SM BKN039 BKN046 21/16 A3001 RMK A01
Pressure 30.01 in
Visibility 10.0 miles
Clouds Mostly Cloudy 3900 ft
Mostly Cloudy 4600 ft
Dew Point 62 °F
Humidity 75%
Rainfall 0.00 in
Snow Depth Not available.
7:41 AM 7:55 PM
Waning Crescent, 25% visible
METAR KFTN 230755Z AUTO 13010KT 10SM BKN039 BKN046 21/16 A3001 RMK A01

Get Severe Weather Alerts

Thanks for signing up!

Be on the lookout for a verification email in your inbox.

You'll start receiving the daily forecast at 8 AM.

×

10-Day Weather Forecast

Almanac

Astronomy

Mar. 23, 2017 Rise Set
Actual Time
Civil Twilight
Nautical Twilight
Astronomical Twilight
Moon
Length of Visible Light
Length of Day
Tomorrow will be .
, % of the Moon is Illuminated

Today's Extremes

State Highs State Lows

Community

WunderPhotos

Upload Photos

1,962,540 photos uploaded!

WunderBlog® & News

Nearby

Air Quality

  Air Quality AQ Index Pollutant
Not available.

Snow Depth

Station Depth Elevation

Earthquake Activity

City Distance Mag. Time & Date
Minimum magnitude displayed is 2.5.

Earthquake Activity

City Distance Mag. Time & Date
Minimum magnitude displayed is 2.5.

Coastal Water Temperatures

Place Temperature

Stations

Nearby Weather Stations

Station Location Temp. Windchill Dew Point Humidity Wind Precip. Elev Updated Type
                   

Watches & Warnings

There are currently no watches in effect.